createdAt,value
2018-12-05T00:01:41.719Z,42.50
2018-12-05T00:04:08.163Z,42.50
2018-12-05T00:06:34.359Z,42.50
2018-12-05T00:09:01.043Z,42.40
2018-12-05T00:11:27.436Z,42.50
2018-12-05T00:13:55.154Z,43.00
2018-12-05T00:16:21.523Z,42.30
2018-12-05T00:18:47.784Z,42.40
2018-12-05T00:21:14.187Z,42.40
2018-12-05T00:23:40.416Z,42.40
2018-12-05T00:26:06.696Z,42.30
2018-12-05T00:28:33.135Z,42.20
2018-12-05T00:30:59.532Z,42.20
2018-12-05T00:33:26.001Z,42.30
2018-12-05T00:35:52.397Z,42.30
2018-12-05T00:38:20.243Z,42.20
2018-12-05T00:40:46.493Z,42.20
2018-12-05T00:43:13.550Z,42.30
2018-12-05T00:45:39.793Z,42.10
2018-12-05T00:48:06.014Z,42.30
2018-12-05T00:50:32.656Z,42.20
2018-12-05T00:52:58.884Z,42.10
2018-12-05T00:55:25.313Z,42.00
2018-12-05T00:57:51.769Z,42.10
2018-12-05T01:00:17.955Z,42.10
2018-12-05T01:02:44.386Z,42.20
2018-12-05T01:05:10.646Z,42.10
2018-12-05T01:07:37.049Z,42.00
2018-12-05T01:10:03.507Z,42.00
2018-12-05T01:12:30.152Z,42.00
2018-12-05T01:14:56.607Z,42.00
2018-12-05T01:17:23.015Z,42.00
2018-12-05T01:19:49.398Z,42.10
2018-12-05T01:22:15.642Z,42.00
2018-12-05T01:24:41.879Z,42.60
2018-12-05T01:27:08.280Z,42.00
2018-12-05T01:29:34.783Z,42.00
2018-12-05T01:32:01.175Z,42.00
2018-12-05T01:34:27.410Z,42.00
2018-12-05T01:36:53.656Z,41.90
2018-12-05T01:39:20.064Z,41.90
2018-12-05T01:41:46.524Z,42.00
2018-12-05T01:44:12.907Z,41.90
2018-12-05T01:46:40.636Z,41.80
2018-12-05T01:49:06.850Z,41.80
2018-12-05T01:51:33.303Z,41.90
2018-12-05T01:53:59.527Z,41.90
2018-12-05T01:56:25.733Z,41.80
2018-12-05T01:58:51.930Z,41.80
2018-12-05T02:01:18.155Z,41.80
2018-12-05T02:03:44.422Z,41.80
2018-12-05T02:06:10.819Z,41.80
2018-12-05T02:08:37.299Z,41.90
2018-12-05T02:11:03.527Z,41.80
2018-12-05T02:13:30.133Z,41.80
2018-12-05T02:15:56.586Z,41.80
2018-12-05T02:18:23.091Z,41.80
2018-12-05T02:20:49.416Z,41.80
2018-12-05T02:23:15.597Z,41.90
2018-12-05T02:25:41.924Z,41.80
2018-12-05T02:28:08.311Z,41.80
2018-12-05T02:30:36.178Z,41.70
2018-12-05T02:33:02.612Z,41.60
2018-12-05T02:35:28.840Z,42.30
2018-12-05T02:37:55.103Z,41.70
2018-12-05T02:40:21.528Z,41.70
2018-12-05T02:42:47.961Z,41.70
2018-12-05T02:45:14.357Z,41.70
2018-12-05T02:47:40.615Z,41.70
2018-12-05T02:50:07.071Z,41.70
2018-12-05T02:52:33.476Z,41.60
2018-12-05T02:55:00.084Z,41.60
2018-12-05T02:57:27.823Z,41.70
2018-12-05T02:59:54.016Z,41.70
2018-12-05T03:02:20.215Z,41.60
2018-12-05T03:04:46.472Z,41.60
2018-12-05T03:07:12.861Z,41.60
2018-12-05T03:09:39.114Z,41.60
2018-12-05T03:12:05.798Z,41.60
2018-12-05T03:14:32.159Z,41.60
2018-12-05T03:16:58.390Z,41.60
2018-12-05T03:19:24.588Z,41.60
2018-12-05T03:21:50.880Z,41.60
2018-12-05T03:24:17.284Z,41.60
2018-12-05T03:26:43.566Z,41.50
2018-12-05T03:29:09.747Z,41.50
2018-12-05T03:31:35.939Z,41.50
2018-12-05T03:34:02.190Z,41.50
2018-12-05T03:36:28.440Z,41.50
2018-12-05T03:38:54.797Z,41.50
2018-12-05T03:41:21.108Z,41.50
2018-12-05T03:43:47.304Z,41.40
2018-12-05T03:46:13.540Z,41.40
2018-12-05T03:48:41.260Z,41.50
2018-12-05T03:51:07.457Z,41.40
2018-12-05T03:53:33.656Z,41.40
2018-12-05T03:55:59.907Z,41.40
2018-12-05T03:58:26.367Z,41.40
2018-12-05T04:00:53.004Z,41.40
2018-12-05T04:03:19.396Z,41.40
2018-12-05T04:05:47.128Z,41.40
2018-12-05T04:08:13.534Z,41.30
2018-12-05T04:10:39.948Z,41.30
2018-12-05T04:13:06.348Z,41.40
2018-12-05T04:15:32.597Z,41.30
2018-12-05T04:17:59.646Z,41.40
2018-12-05T04:20:26.102Z,41.40
2018-12-05T04:22:52.479Z,41.30
2018-12-05T04:25:18.764Z,41.30
2018-12-05T04:27:45.144Z,41.30
2018-12-05T04:30:11.405Z,41.30
2018-12-05T04:32:37.822Z,41.20
2018-12-05T04:35:05.552Z,41.20
2018-12-05T04:37:31.912Z,41.10
2018-12-05T04:39:58.152Z,41.20
2018-12-05T04:42:24.375Z,41.20
2018-12-05T04:44:50.587Z,41.20
2018-12-05T04:47:16.855Z,41.20
2018-12-05T04:49:43.259Z,41.20
2018-12-05T04:52:09.473Z,41.10
2018-12-05T04:54:35.740Z,41.10
2018-12-05T04:57:02.154Z,41.10
2018-12-05T04:59:30.024Z,41.10
2018-12-05T05:01:56.218Z,41.00
2018-12-05T05:04:28.452Z,41.00
2018-12-05T05:06:54.851Z,41.10
2018-12-05T05:09:21.148Z,41.10
2018-12-05T05:11:47.525Z,41.00
2018-12-05T05:14:13.961Z,41.00
2018-12-05T05:16:40.411Z,41.00
2018-12-05T05:19:06.845Z,41.00
2018-12-05T05:21:33.249Z,41.00
2018-12-05T05:23:59.871Z,41.60
2018-12-05T05:26:26.294Z,41.00
2018-12-05T05:28:52.548Z,41.00
2018-12-05T05:31:18.792Z,41.00
2018-12-05T05:33:45.239Z,40.90
2018-12-05T05:36:11.665Z,41.00
2018-12-05T05:38:38.241Z,40.90
2018-12-05T05:41:04.493Z,40.90
2018-12-05T05:43:30.767Z,40.90
2018-12-05T05:45:57.168Z,40.90
2018-12-05T05:48:23.393Z,40.80
2018-12-05T05:50:49.862Z,40.90
2018-12-05T05:53:16.290Z,40.80
2018-12-05T05:55:42.952Z,40.80
2018-12-05T05:58:09.323Z,40.80
2018-12-05T06:00:35.627Z,40.80
2018-12-05T06:03:02.039Z,40.70
2018-12-05T06:05:28.456Z,40.80
2018-12-05T06:07:54.843Z,40.80
2018-12-05T06:10:21.119Z,40.80
2018-12-05T06:12:47.540Z,40.70
2018-12-05T06:15:13.728Z,40.80
2018-12-05T06:17:40.252Z,40.70
2018-12-05T06:20:06.649Z,40.70
2018-12-05T06:22:33.041Z,40.60
2018-12-05T06:24:59.273Z,40.70
2018-12-05T06:27:27.132Z,40.70
2018-12-05T06:29:53.392Z,40.70
2018-12-05T06:32:20.043Z,40.60
2018-12-05T06:34:46.240Z,40.70
2018-12-05T06:37:12.703Z,40.60
2018-12-05T06:39:39.340Z,40.70
2018-12-05T06:42:05.744Z,40.60
2018-12-05T06:44:31.936Z,40.60
2018-12-05T06:46:58.189Z,40.60
2018-12-05T06:49:24.425Z,40.50
2018-12-05T06:51:52.295Z,40.60
2018-12-05T06:54:19.353Z,40.50
2018-12-05T06:56:45.808Z,40.50
2018-12-05T06:59:12.192Z,40.50
2018-12-05T07:01:38.660Z,40.50
2018-12-05T07:04:05.079Z,40.60
2018-12-05T07:06:31.273Z,40.50
2018-12-05T07:08:57.567Z,40.50
2018-12-05T07:11:23.952Z,40.60
2018-12-05T07:13:50.426Z,40.50
2018-12-05T07:16:16.838Z,40.50
2018-12-05T07:18:43.044Z,40.50
2018-12-05T07:21:09.319Z,40.40
2018-12-05T07:23:35.725Z,40.50
2018-12-05T07:26:02.140Z,40.50
2018-12-05T07:28:28.388Z,40.50
2018-12-05T07:30:55.162Z,40.40
2018-12-05T07:33:21.055Z,40.50
2018-12-05T07:35:47.676Z,40.30
2018-12-05T07:38:19.309Z,40.40
2018-12-05T07:40:41.388Z,40.40
2018-12-05T07:43:07.807Z,40.30
2018-12-05T07:45:34.465Z,40.30
2018-12-05T07:48:01.102Z,40.30
2018-12-05T07:50:27.486Z,40.30
2018-12-05T07:52:53.764Z,40.40
2018-12-05T07:55:20.198Z,40.30
2018-12-05T07:57:46.395Z,40.40
2018-12-05T08:00:12.902Z,40.40
2018-12-05T08:02:39.501Z,40.30
2018-12-05T08:05:05.941Z,40.30
2018-12-05T08:07:32.336Z,40.30
2018-12-05T08:09:59.426Z,40.30
2018-12-05T08:12:25.805Z,40.30
2018-12-05T08:14:52.842Z,40.30
2018-12-05T08:17:19.332Z,40.20
2018-12-05T08:19:45.756Z,40.20
2018-12-05T08:22:12.163Z,40.20
2018-12-05T08:24:38.430Z,40.30
2018-12-05T08:27:05.259Z,40.30
2018-12-05T08:29:31.628Z,40.30
2018-12-05T08:31:57.928Z,40.30
2018-12-05T08:34:24.379Z,40.20
2018-12-05T08:36:50.751Z,40.10
2018-12-05T08:39:17.424Z,40.20
2018-12-05T08:41:43.684Z,40.10
2018-12-05T08:44:09.976Z,40.20
2018-12-05T08:46:37.108Z,40.10
2018-12-05T08:49:03.524Z,40.10
2018-12-05T08:51:29.750Z,40.10
2018-12-05T08:53:56.432Z,40.10
2018-12-05T08:56:22.867Z,40.10
2018-12-05T08:58:49.327Z,40.10
2018-12-05T09:01:15.708Z,40.10
2018-12-05T09:03:42.163Z,40.10
2018-12-05T09:06:08.601Z,40.10
2018-12-05T09:08:34.984Z,40.10
2018-12-05T09:11:01.228Z,40.00
2018-12-05T09:13:28.955Z,40.00
2018-12-05T09:15:55.133Z,40.00
2018-12-05T09:18:21.586Z,40.00
2018-12-05T09:20:47.971Z,40.10
2018-12-05T09:23:14.213Z,40.10
2018-12-05T09:25:40.421Z,40.10
2018-12-05T09:28:06.724Z,40.10
2018-12-05T09:30:33.100Z,40.00
2018-12-05T09:32:59.310Z,40.10
2018-12-05T09:35:25.540Z,40.00
2018-12-05T09:37:53.446Z,40.00
2018-12-05T09:40:19.876Z,40.00
2018-12-05T09:42:46.114Z,40.00
2018-12-05T09:45:12.493Z,40.00
2018-12-05T09:47:38.740Z,40.00
2018-12-05T09:50:04.974Z,40.00
2018-12-05T09:52:31.376Z,40.00
2018-12-05T09:54:57.670Z,40.00
2018-12-05T09:57:24.098Z,39.90
2018-12-05T09:59:50.496Z,39.90
2018-12-05T10:02:16.756Z,40.00
2018-12-05T10:04:43.201Z,40.00
2018-12-05T10:07:09.596Z,39.90
2018-12-05T10:09:36.060Z,39.90
2018-12-05T10:12:02.462Z,39.90
2018-12-05T10:14:30.327Z,40.00
2018-12-05T10:16:56.562Z,39.90
2018-12-05T10:19:22.779Z,40.50
2018-12-05T10:21:49.015Z,40.00
2018-12-05T10:24:15.456Z,39.90
2018-12-05T10:26:41.656Z,39.90
2018-12-05T10:29:07.933Z,39.90
2018-12-05T10:31:34.368Z,39.90
2018-12-05T10:34:00.676Z,40.00
2018-12-05T10:36:27.017Z,39.90
2018-12-05T10:38:53.424Z,40.00
2018-12-05T10:41:21.154Z,40.00
2018-12-05T10:43:47.542Z,40.00
2018-12-05T10:46:14.202Z,40.00
2018-12-05T10:48:40.698Z,40.00
2018-12-05T10:51:06.858Z,40.00
2018-12-05T10:53:33.243Z,40.00
2018-12-05T10:55:59.444Z,40.00
2018-12-05T10:58:25.743Z,40.00
2018-12-05T11:00:52.163Z,40.00
2018-12-05T11:03:18.371Z,40.00
2018-12-05T11:05:44.631Z,40.00
2018-12-05T11:08:11.048Z,40.00
2018-12-05T11:10:37.458Z,40.00
2018-12-05T11:13:04.510Z,40.00
2018-12-05T11:15:30.778Z,40.00
2018-12-05T11:17:57.187Z,40.00
2018-12-05T11:20:23.434Z,40.00
2018-12-05T11:22:49.857Z,40.00
2018-12-05T11:25:16.288Z,40.00
2018-12-05T11:27:42.697Z,40.60
2018-12-05T11:30:10.436Z,40.10
2018-12-05T11:32:36.784Z,40.00
2018-12-05T11:35:04.492Z,40.00
2018-12-05T11:37:30.924Z,40.10
2018-12-05T11:39:57.340Z,40.10
2018-12-05T11:42:23.767Z,40.10
2018-12-05T11:44:50.211Z,40.10
2018-12-05T11:47:16.455Z,40.10
2018-12-05T11:49:42.833Z,40.10
2018-12-05T11:52:09.103Z,40.10
2018-12-05T11:54:35.481Z,40.10
2018-12-05T11:57:01.736Z,40.10
2018-12-05T11:59:28.182Z,40.10
2018-12-05T12:01:54.412Z,40.10
2018-12-05T12:04:20.833Z,40.10
2018-12-05T12:06:47.055Z,40.10
2018-12-05T12:09:13.284Z,40.10
2018-12-05T12:11:39.487Z,40.10
2018-12-05T12:14:05.707Z,40.20
2018-12-05T12:16:32.006Z,40.20
2018-12-05T12:18:58.427Z,40.20
2018-12-05T12:21:24.678Z,40.20
2018-12-05T12:23:51.105Z,40.20
2018-12-05T12:26:17.489Z,40.20
2018-12-05T12:28:45.197Z,40.20
2018-12-05T12:31:11.837Z,40.20
2018-12-05T12:33:38.233Z,40.20
2018-12-05T12:36:04.481Z,40.30
2018-12-05T12:38:30.712Z,40.30
2018-12-05T12:40:57.364Z,40.30
2018-12-05T12:43:23.573Z,40.30
2018-12-05T12:45:50.000Z,40.30
2018-12-05T12:48:16.226Z,40.30
2018-12-05T12:50:42.687Z,40.30
2018-12-05T12:53:09.086Z,40.30
2018-12-05T12:55:35.553Z,40.30
2018-12-05T12:58:01.976Z,40.30
2018-12-05T13:00:28.376Z,40.30
2018-12-05T13:02:54.647Z,40.30
2018-12-05T13:05:20.835Z,40.40
2018-12-05T13:07:48.890Z,40.40
2018-12-05T13:10:15.207Z,40.30
2018-12-05T13:12:41.402Z,40.30
2018-12-05T13:15:07.808Z,40.30
2018-12-05T13:17:34.023Z,40.30
2018-12-05T13:20:00.268Z,40.40
2018-12-05T13:22:27.306Z,40.40
2018-12-05T13:24:54.327Z,40.40
2018-12-05T13:27:20.821Z,40.40
2018-12-05T13:29:47.254Z,40.50
2018-12-05T13:32:13.677Z,40.50
2018-12-05T13:34:40.126Z,40.50
2018-12-05T13:37:06.328Z,40.40
2018-12-05T13:39:32.558Z,40.40
2018-12-05T13:41:58.846Z,40.40
2018-12-05T13:44:25.214Z,40.40
2018-12-05T13:46:52.239Z,40.50
2018-12-05T13:49:18.572Z,40.40
2018-12-05T13:51:44.919Z,40.50
2018-12-05T13:54:11.129Z,40.50
2018-12-05T13:56:37.568Z,40.50
2018-12-05T13:59:04.041Z,40.50
2018-12-05T14:01:30.408Z,40.50
2018-12-05T14:03:56.933Z,40.50
2018-12-05T14:06:23.299Z,40.50
2018-12-05T14:08:51.219Z,40.50
2018-12-05T14:11:17.616Z,40.50
2018-12-05T14:13:43.858Z,40.50
2018-12-05T14:16:10.061Z,40.60
2018-12-05T14:18:36.279Z,40.60
2018-12-05T14:21:02.580Z,40.60
2018-12-05T14:23:28.825Z,40.60
2018-12-05T14:25:55.204Z,41.20
2018-12-05T14:28:21.606Z,40.60
2018-12-05T14:30:47.828Z,40.60
2018-12-05T14:33:14.073Z,40.60
2018-12-05T14:35:40.296Z,40.60
2018-12-05T14:38:08.153Z,40.70
2018-12-05T14:40:34.570Z,40.60
2018-12-05T14:43:00.832Z,40.60
2018-12-05T14:45:27.081Z,40.60
2018-12-05T14:47:53.507Z,40.70
2018-12-05T14:50:20.051Z,40.70
2018-12-05T14:52:47.162Z,40.70
2018-12-05T14:55:13.442Z,40.70
2018-12-05T14:57:39.662Z,40.60
2018-12-05T15:00:06.083Z,40.60
2018-12-05T15:02:32.541Z,40.70
2018-12-05T15:04:58.943Z,40.70
2018-12-05T15:07:25.430Z,40.70
2018-12-05T15:09:52.015Z,40.70
2018-12-05T15:12:18.449Z,40.70
2018-12-05T15:14:44.661Z,40.70
2018-12-05T15:17:10.885Z,40.70
2018-12-05T15:19:37.103Z,40.70
2018-12-05T15:22:03.586Z,40.70
2018-12-05T15:24:29.973Z,40.70
2018-12-05T15:26:56.233Z,40.70
2018-12-05T15:29:22.632Z,40.80
2018-12-05T15:31:49.118Z,40.70
2018-12-05T15:34:15.530Z,40.70
2018-12-05T15:36:41.813Z,40.80
2018-12-05T15:39:08.221Z,40.80
2018-12-05T15:41:34.860Z,40.80
2018-12-05T15:44:01.486Z,40.80
2018-12-05T15:46:27.911Z,40.80
2018-12-05T15:48:54.323Z,40.80
2018-12-05T15:51:20.556Z,40.80
2018-12-05T15:53:47.217Z,40.80
2018-12-05T15:56:13.753Z,40.80
2018-12-05T15:58:40.287Z,40.80
2018-12-05T16:01:06.884Z,40.80
2018-12-05T16:03:33.193Z,40.80
2018-12-05T16:05:59.603Z,40.80
2018-12-05T16:08:25.979Z,40.80
2018-12-05T16:10:52.450Z,40.80
2018-12-05T16:13:18.925Z,40.80
2018-12-05T16:15:45.522Z,40.80
2018-12-05T16:18:12.159Z,40.80
2018-12-05T16:20:38.566Z,40.80
2018-12-05T16:23:05.042Z,40.80
2018-12-05T16:25:31.441Z,40.80
2018-12-05T16:27:57.685Z,40.90
2018-12-05T16:30:24.385Z,40.90
2018-12-05T16:32:50.736Z,41.50
2018-12-05T16:35:17.207Z,40.90
2018-12-05T16:37:43.580Z,40.90
2018-12-05T16:40:11.487Z,41.00
2018-12-05T16:42:38.127Z,40.90
2018-12-05T16:45:04.784Z,41.00
2018-12-05T16:47:31.200Z,41.00
2018-12-05T16:49:57.593Z,41.00
2018-12-05T16:52:24.270Z,41.00
2018-12-05T16:54:50.500Z,41.00
2018-12-05T16:57:16.726Z,41.00
2018-12-05T16:59:43.128Z,41.00
2018-12-05T17:02:09.363Z,41.00
2018-12-05T17:04:35.616Z,41.00
2018-12-05T17:07:01.996Z,41.00
2018-12-05T17:09:29.903Z,41.00
2018-12-05T17:11:56.343Z,41.00
2018-12-05T17:14:22.563Z,40.90
2018-12-05T17:16:48.781Z,40.90
2018-12-05T17:19:15.243Z,41.00
2018-12-05T17:21:41.643Z,41.00
2018-12-05T17:24:10.766Z,41.00
2018-12-05T17:26:37.198Z,40.90
2018-12-05T17:29:03.395Z,40.90
2018-12-05T17:31:29.860Z,40.90
2018-12-05T17:33:56.253Z,40.90
2018-12-05T17:36:22.494Z,40.80
2018-12-05T17:38:50.426Z,41.00
2018-12-05T17:41:16.824Z,41.00
2018-12-05T17:43:43.204Z,40.90
2018-12-05T17:46:09.405Z,40.90
2018-12-05T17:48:35.675Z,41.00
2018-12-05T17:51:01.927Z,41.00
2018-12-05T17:53:28.153Z,40.90
2018-12-05T17:55:54.560Z,41.00
2018-12-05T17:58:20.796Z,40.90
2018-12-05T18:00:47.240Z,41.00
2018-12-05T18:03:13.689Z,41.00
2018-12-05T18:05:40.096Z,41.00
2018-12-05T18:08:06.325Z,40.90
2018-12-05T18:10:32.621Z,40.90
2018-12-05T18:12:58.982Z,40.90
2018-12-05T18:15:26.864Z,41.00
2018-12-05T18:17:53.304Z,40.90
2018-12-05T18:20:19.716Z,41.00
2018-12-05T18:22:46.155Z,41.00
2018-12-05T18:25:12.400Z,41.00
2018-12-05T18:27:38.824Z,41.00
2018-12-05T18:30:05.287Z,41.00
2018-12-05T18:32:31.678Z,41.00
2018-12-05T18:34:57.906Z,40.90
2018-12-05T18:37:25.776Z,40.90
2018-12-05T18:39:53.622Z,41.00
2018-12-05T18:42:19.879Z,40.90
2018-12-05T18:44:46.091Z,41.00
2018-12-05T18:47:12.561Z,41.00
2018-12-05T18:49:38.984Z,41.10
2018-12-05T18:52:05.391Z,41.00
2018-12-05T18:54:31.843Z,41.00
2018-12-05T18:56:58.255Z,41.00
2018-12-05T18:59:24.510Z,41.00
2018-12-05T19:01:50.945Z,41.00
2018-12-05T19:04:17.371Z,41.00
2018-12-05T19:06:43.583Z,41.00
2018-12-05T19:09:09.822Z,41.00
2018-12-05T19:11:36.072Z,41.00
2018-12-05T19:14:02.457Z,41.00
2018-12-05T19:16:28.674Z,41.00
2018-12-05T19:18:54.896Z,41.00
2018-12-05T19:21:21.374Z,41.10
2018-12-05T19:23:47.584Z,41.10
2018-12-05T19:26:14.018Z,41.10
2018-12-05T19:28:40.866Z,41.20
2018-12-05T19:31:07.100Z,41.00
2018-12-05T19:33:33.538Z,41.00
2018-12-05T19:35:59.997Z,41.00
2018-12-05T19:38:26.308Z,41.10
2018-12-05T19:40:53.443Z,41.10
2018-12-05T19:43:19.674Z,41.10
2018-12-05T19:45:46.635Z,41.10
2018-12-05T19:48:13.790Z,41.10
2018-12-05T19:50:40.180Z,41.00
2018-12-05T19:53:06.404Z,41.10
2018-12-05T19:55:32.651Z,41.10
2018-12-05T19:57:59.734Z,41.10
2018-12-05T20:00:26.132Z,41.10
2018-12-05T20:02:52.803Z,41.10
2018-12-05T20:05:19.206Z,41.10
2018-12-05T20:07:45.631Z,41.10
2018-12-05T20:10:11.888Z,41.10
2018-12-05T20:12:38.300Z,41.10
2018-12-05T20:15:04.515Z,41.20
2018-12-05T20:17:31.019Z,41.10
2018-12-05T20:19:57.394Z,41.10
2018-12-05T20:22:23.625Z,41.10
2018-12-05T20:24:49.867Z,41.20
2018-12-05T20:27:16.317Z,41.20
2018-12-05T20:29:42.715Z,41.20
2018-12-05T20:32:08.948Z,41.20
2018-12-05T20:34:35.383Z,41.20
2018-12-05T20:37:01.624Z,41.20
2018-12-05T20:39:27.804Z,41.20
2018-12-05T20:41:54.135Z,41.20
2018-12-05T20:44:20.732Z,41.20
2018-12-05T20:46:47.163Z,41.20
2018-12-05T20:49:13.565Z,41.20
2018-12-05T20:51:39.890Z,41.20
2018-12-05T20:54:06.258Z,41.20
2018-12-05T20:56:32.439Z,41.20
2018-12-05T20:58:58.633Z,41.20
2018-12-05T21:01:24.943Z,41.30
2018-12-05T21:03:51.563Z,41.30
2018-12-05T21:06:17.987Z,41.30
2018-12-05T21:08:44.246Z,41.30
2018-12-05T21:11:10.648Z,41.30
2018-12-05T21:13:36.928Z,41.30
2018-12-05T21:16:03.349Z,41.30
2018-12-05T21:18:29.975Z,41.30
2018-12-05T21:20:56.386Z,41.30
2018-12-05T21:23:22.812Z,41.30
2018-12-05T21:25:49.293Z,41.30
2018-12-05T21:28:15.708Z,41.30
2018-12-05T21:30:42.129Z,41.30
2018-12-05T21:33:08.561Z,41.30
2018-12-05T21:35:35.006Z,41.30
2018-12-05T21:38:01.403Z,41.30
2018-12-05T21:40:29.318Z,41.40
2018-12-05T21:42:55.748Z,41.40
2018-12-05T21:45:22.138Z,41.30
2018-12-05T21:47:48.356Z,41.40
2018-12-05T21:50:14.607Z,41.30
2018-12-05T21:52:41.014Z,41.10
2018-12-05T21:55:07.252Z,41.40
2018-12-05T21:57:34.523Z,41.40
2018-12-05T22:00:00.750Z,41.40
2018-12-05T22:02:27.156Z,41.40
2018-12-05T22:04:53.377Z,41.40
2018-12-05T22:07:19.615Z,41.40
2018-12-05T22:09:45.888Z,41.40
2018-12-05T22:12:12.277Z,41.40
2018-12-05T22:14:38.639Z,41.50
2018-12-05T22:17:04.952Z,41.50
2018-12-05T22:19:31.434Z,41.50
2018-12-05T22:21:57.795Z,41.50
2018-12-05T22:24:24.243Z,41.50
2018-12-05T22:26:50.497Z,41.50
2018-12-05T22:29:16.916Z,41.50
2018-12-05T22:31:43.376Z,41.50
2018-12-05T22:34:09.791Z,41.50
2018-12-05T22:36:36.245Z,41.60
2018-12-05T22:39:02.661Z,42.20
2018-12-05T22:41:29.115Z,41.50
2018-12-05T22:43:55.542Z,41.60
2018-12-05T22:46:21.960Z,41.50
2018-12-05T22:48:48.612Z,41.50
2018-12-05T22:51:15.044Z,41.60
2018-12-05T22:53:41.448Z,41.60
2018-12-05T22:56:07.704Z,41.70
2018-12-05T22:58:34.098Z,41.60
2018-12-05T23:01:00.316Z,41.60
2018-12-05T23:03:26.799Z,41.70
2018-12-05T23:05:53.241Z,41.70
2018-12-05T23:08:19.647Z,41.60
2018-12-05T23:10:46.072Z,41.70
2018-12-05T23:13:12.531Z,42.20
2018-12-05T23:15:39.175Z,41.70
2018-12-05T23:18:05.559Z,41.70
2018-12-05T23:20:31.830Z,41.70
2018-12-05T23:22:58.469Z,41.70
2018-12-05T23:25:24.740Z,41.70
2018-12-05T23:27:51.094Z,41.70
2018-12-05T23:30:17.334Z,41.70
2018-12-05T23:32:43.794Z,41.80
2018-12-05T23:35:10.241Z,41.70
2018-12-05T23:37:36.658Z,41.70
2018-12-05T23:40:03.296Z,41.70
2018-12-05T23:42:30.012Z,41.70
2018-12-05T23:44:57.139Z,41.70
2018-12-05T23:47:23.621Z,41.70
2018-12-05T23:49:50.020Z,41.70
2018-12-05T23:52:16.236Z,41.80
2018-12-05T23:54:42.470Z,41.80
2018-12-05T23:57:08.708Z,41.80
2018-12-05T23:59:35.157Z,41.80
